sensor_id;sensor_type;location;lat;lon;timestamp;P1;durP1;ratioP1;P2;durP2;ratioP2
48596;SDS011;34382;43.160;24.148;2023-08-20T00:01:09;9.03;;;5.57;;
48596;SDS011;34382;43.160;24.148;2023-08-20T00:02:45;9.35;;;5.40;;
48596;SDS011;34382;43.160;24.148;2023-08-20T00:04:18;9.35;;;5.35;;
48596;SDS011;34382;43.160;24.148;2023-08-20T00:05:51;9.52;;;5.57;;
48596;SDS011;34382;43.160;24.148;2023-08-20T00:07:23;13.70;;;6.00;;
48596;SDS011;34382;43.160;24.148;2023-08-20T00:08:56;9.73;;;5.85;;
48596;SDS011;34382;43.160;24.148;2023-08-20T00:10:28;8.95;;;5.45;;
48596;SDS011;34382;43.160;24.148;2023-08-20T00:12:00;9.82;;;5.10;;
48596;SDS011;34382;43.160;24.148;2023-08-20T00:13:37;9.95;;;5.72;;
48596;SDS011;34382;43.160;24.148;2023-08-20T00:15:09;9.05;;;5.38;;
48596;SDS011;34382;43.160;24.148;2023-08-20T00:16:42;9.20;;;5.60;;
48596;SDS011;34382;43.160;24.148;2023-08-20T00:18:17;9.73;;;5.60;;
48596;SDS011;34382;43.160;24.148;2023-08-20T00:19:50;9.68;;;5.18;;
48596;SDS011;34382;43.160;24.148;2023-08-20T00:21:22;9.85;;;5.53;;
48596;SDS011;34382;43.160;24.148;2023-08-20T00:22:55;9.20;;;5.10;;
48596;SDS011;34382;43.160;24.148;2023-08-20T00:24:27;10.75;;;5.47;;
48596;SDS011;34382;43.160;24.148;2023-08-20T00:26:00;10.80;;;5.47;;
48596;SDS011;34382;43.160;24.148;2023-08-20T00:27:34;9.80;;;5.20;;
48596;SDS011;34382;43.160;24.148;2023-08-20T00:29:06;9.48;;;5.57;;
48596;SDS011;34382;43.160;24.148;2023-08-20T00:30:39;9.63;;;5.38;;
48596;SDS011;34382;43.160;24.148;2023-08-20T00:32:11;9.82;;;5.75;;
48596;SDS011;34382;43.160;24.148;2023-08-20T00:33:43;9.93;;;5.35;;
48596;SDS011;34382;43.160;24.148;2023-08-20T00:35:31;12.23;;;5.60;;
48596;SDS011;34382;43.160;24.148;2023-08-20T00:37:04;9.20;;;5.28;;
48596;SDS011;34382;43.160;24.148;2023-08-20T00:38:36;9.05;;;5.18;;
48596;SDS011;34382;43.160;24.148;2023-08-20T00:40:09;10.70;;;5.30;;
48596;SDS011;34382;43.160;24.148;2023-08-20T00:41:41;11.10;;;5.35;;
48596;SDS011;34382;43.160;24.148;2023-08-20T00:43:14;10.02;;;5.88;;
48596;SDS011;34382;43.160;24.148;2023-08-20T00:44:46;9.38;;;5.80;;
48596;SDS011;34382;43.160;24.148;2023-08-20T00:46:18;9.32;;;5.28;;
48596;SDS011;34382;43.160;24.148;2023-08-20T00:47:50;9.80;;;5.45;;
48596;SDS011;34382;43.160;24.148;2023-08-20T00:49:23;11.02;;;5.13;;
48596;SDS011;34382;43.160;24.148;2023-08-20T00:50:55;9.57;;;5.43;;
48596;SDS011;34382;43.160;24.148;2023-08-20T00:52:27;10.05;;;5.32;;
48596;SDS011;34382;43.160;24.148;2023-08-20T00:54:00;8.77;;;5.33;;
48596;SDS011;34382;43.160;24.148;2023-08-20T00:55:34;9.35;;;5.75;;
48596;SDS011;34382;43.160;24.148;2023-08-20T00:57:07;9.70;;;5.30;;
48596;SDS011;34382;43.160;24.148;2023-08-20T00:58:40;11.57;;;5.47;;
48596;SDS011;34382;43.160;24.148;2023-08-20T01:00:12;9.82;;;5.60;;
48596;SDS011;34382;43.160;24.148;2023-08-20T01:01:44;9.13;;;5.33;;
48596;SDS011;34382;43.160;24.148;2023-08-20T01:03:17;9.95;;;5.40;;
48596;SDS011;34382;43.160;24.148;2023-08-20T01:04:49;9.75;;;5.60;;
48596;SDS011;34382;43.160;24.148;2023-08-20T01:08:23;9.40;;;5.50;;
48596;SDS011;34382;43.160;24.148;2023-08-20T01:10:39;10.13;;;5.13;;
48596;SDS011;34382;43.160;24.148;2023-08-20T01:12:17;9.93;;;5.13;;
48596;SDS011;34382;43.160;24.148;2023-08-20T01:13:50;8.40;;;5.25;;
48596;SDS011;34382;43.160;24.148;2023-08-20T01:15:23;9.50;;;5.00;;
48596;SDS011;34382;43.160;24.148;2023-08-20T01:16:56;10.93;;;5.25;;
48596;SDS011;34382;43.160;24.148;2023-08-20T01:18:28;9.82;;;5.47;;
48596;SDS011;34382;43.160;24.148;2023-08-20T01:20:01;9.65;;;5.18;;
48596;SDS011;34382;43.160;24.148;2023-08-20T01:29:07;9.18;;;5.22;;
48596;SDS011;34382;43.160;24.148;2023-08-20T01:30:39;9.18;;;5.57;;
48596;SDS011;34382;43.160;24.148;2023-08-20T01:33:49;9.85;;;5.70;;
48596;SDS011;34382;43.160;24.148;2023-08-20T01:35:22;8.18;;;5.05;;
48596;SDS011;34382;43.160;24.148;2023-08-20T01:47:13;11.45;;;5.65;;
48596;SDS011;34382;43.160;24.148;2023-08-20T01:48:45;8.60;;;5.13;;
48596;SDS011;34382;43.160;24.148;2023-08-20T01:50:18;9.70;;;5.47;;
48596;SDS011;34382;43.160;24.148;2023-08-20T01:51:50;9.45;;;5.85;;
48596;SDS011;34382;43.160;24.148;2023-08-20T01:53:23;9.18;;;5.40;;
48596;SDS011;34382;43.160;24.148;2023-08-20T01:54:55;9.90;;;5.28;;
48596;SDS011;34382;43.160;24.148;2023-08-20T01:56:27;10.00;;;5.45;;
48596;SDS011;34382;43.160;24.148;2023-08-20T01:57:59;12.73;;;6.07;;
48596;SDS011;34382;43.160;24.148;2023-08-20T01:59:32;12.45;;;5.53;;
48596;SDS011;34382;43.160;24.148;2023-08-20T02:01:04;9.32;;;5.35;;
48596;SDS011;34382;43.160;24.148;2023-08-20T02:02:36;9.68;;;5.43;;
48596;SDS011;34382;43.160;24.148;2023-08-20T02:04:08;9.60;;;5.75;;
48596;SDS011;34382;43.160;24.148;2023-08-20T02:05:40;8.52;;;5.15;;
48596;SDS011;34382;43.160;24.148;2023-08-20T02:07:13;9.40;;;5.75;;
48596;SDS011;34382;43.160;24.148;2023-08-20T02:10:25;9.02;;;5.65;;
48596;SDS011;34382;43.160;24.148;2023-08-20T02:11:57;9.50;;;5.47;;
48596;SDS011;34382;43.160;24.148;2023-08-20T02:13:30;9.45;;;5.38;;
48596;SDS011;34382;43.160;24.148;2023-08-20T02:16:43;9.95;;;5.70;;
48596;SDS011;34382;43.160;24.148;2023-08-20T02:18:15;14.40;;;6.30;;
48596;SDS011;34382;43.160;24.148;2023-08-20T02:19:48;10.18;;;5.60;;
48596;SDS011;34382;43.160;24.148;2023-08-20T02:21:21;9.07;;;5.30;;
48596;SDS011;34382;43.160;24.148;2023-08-20T02:22:53;10.48;;;5.70;;
48596;SDS011;34382;43.160;24.148;2023-08-20T02:24:25;9.82;;;5.32;;
48596;SDS011;34382;43.160;24.148;2023-08-20T02:25:57;8.82;;;5.38;;
48596;SDS011;34382;43.160;24.148;2023-08-20T02:27:29;9.85;;;5.28;;
48596;SDS011;34382;43.160;24.148;2023-08-20T02:29:02;9.93;;;5.50;;
48596;SDS011;34382;43.160;24.148;2023-08-20T02:30:41;8.25;;;4.80;;
48596;SDS011;34382;43.160;24.148;2023-08-20T02:32:14;9.23;;;5.40;;
48596;SDS011;34382;43.160;24.148;2023-08-20T02:33:46;9.75;;;5.13;;
48596;SDS011;34382;43.160;24.148;2023-08-20T02:35:19;9.77;;;5.50;;
48596;SDS011;34382;43.160;24.148;2023-08-20T02:36:51;9.57;;;5.32;;
48596;SDS011;34382;43.160;24.148;2023-08-20T02:38:23;11.13;;;5.50;;
48596;SDS011;34382;43.160;24.148;2023-08-20T02:39:55;9.68;;;5.45;;
48596;SDS011;34382;43.160;24.148;2023-08-20T02:41:27;8.63;;;5.00;;
48596;SDS011;34382;43.160;24.148;2023-08-20T02:43:00;9.47;;;5.63;;
48596;SDS011;34382;43.160;24.148;2023-08-20T02:44:32;11.73;;;5.43;;
48596;SDS011;34382;43.160;24.148;2023-08-20T02:46:04;9.45;;;5.60;;
48596;SDS011;34382;43.160;24.148;2023-08-20T02:47:36;10.75;;;5.53;;
48596;SDS011;34382;43.160;24.148;2023-08-20T02:49:09;9.77;;;5.30;;
48596;SDS011;34382;43.160;24.148;2023-08-20T02:50:42;10.80;;;5.75;;
48596;SDS011;34382;43.160;24.148;2023-08-20T02:52:15;9.93;;;5.25;;
48596;SDS011;34382;43.160;24.148;2023-08-20T02:53:47;10.52;;;5.70;;
48596;SDS011;34382;43.160;24.148;2023-08-20T02:55:19;9.43;;;5.35;;
48596;SDS011;34382;43.160;24.148;2023-08-20T02:56:51;9.95;;;5.85;;
48596;SDS011;34382;43.160;24.148;2023-08-20T02:58:23;8.77;;;5.43;;
48596;SDS011;34382;43.160;24.148;2023-08-20T02:59:56;9.10;;;5.28;;
48596;SDS011;34382;43.160;24.148;2023-08-20T03:01:28;10.13;;;5.65;;
48596;SDS011;34382;43.160;24.148;2023-08-20T03:03:02;10.63;;;5.70;;
48596;SDS011;34382;43.160;24.148;2023-08-20T03:04:37;9.88;;;5.35;;
48596;SDS011;34382;43.160;24.148;2023-08-20T03:06:09;9.13;;;5.50;;
48596;SDS011;34382;43.160;24.148;2023-08-20T03:07:41;9.90;;;5.85;;
48596;SDS011;34382;43.160;24.148;2023-08-20T03:09:13;9.15;;;5.30;;
48596;SDS011;34382;43.160;24.148;2023-08-20T03:10:46;9.23;;;5.32;;
48596;SDS011;34382;43.160;24.148;2023-08-20T03:12:18;8.80;;;5.10;;
48596;SDS011;34382;43.160;24.148;2023-08-20T03:13:50;9.15;;;5.28;;
48596;SDS011;34382;43.160;24.148;2023-08-20T03:15:22;11.85;;;5.13;;
48596;SDS011;34382;43.160;24.148;2023-08-20T03:16:55;10.43;;;5.60;;
48596;SDS011;34382;43.160;24.148;2023-08-20T03:18:27;8.68;;;4.95;;
48596;SDS011;34382;43.160;24.148;2023-08-20T03:19:59;8.98;;;5.15;;
48596;SDS011;34382;43.160;24.148;2023-08-20T03:21:32;9.80;;;5.43;;
48596;SDS011;34382;43.160;24.148;2023-08-20T03:23:04;9.65;;;5.22;;
48596;SDS011;34382;43.160;24.148;2023-08-20T03:24:36;9.27;;;5.25;;
48596;SDS011;34382;43.160;24.148;2023-08-20T03:26:09;10.18;;;5.45;;
48596;SDS011;34382;43.160;24.148;2023-08-20T03:27:41;10.05;;;5.38;;
48596;SDS011;34382;43.160;24.148;2023-08-20T03:29:13;10.73;;;5.70;;
48596;SDS011;34382;43.160;24.148;2023-08-20T03:30:45;9.55;;;5.35;;
48596;SDS011;34382;43.160;24.148;2023-08-20T03:32:18;9.90;;;5.25;;
48596;SDS011;34382;43.160;24.148;2023-08-20T03:33:50;8.80;;;5.00;;
48596;SDS011;34382;43.160;24.148;2023-08-20T03:35:22;9.32;;;5.40;;
48596;SDS011;34382;43.160;24.148;2023-08-20T03:36:55;9.30;;;5.28;;
48596;SDS011;34382;43.160;24.148;2023-08-20T03:38:27;8.95;;;5.28;;
48596;SDS011;34382;43.160;24.148;2023-08-20T03:39:59;9.00;;;5.20;;
48596;SDS011;34382;43.160;24.148;2023-08-20T03:41:31;12.68;;;5.93;;
48596;SDS011;34382;43.160;24.148;2023-08-20T03:43:03;9.00;;;5.20;;
48596;SDS011;34382;43.160;24.148;2023-08-20T03:44:36;9.93;;;5.45;;
48596;SDS011;34382;43.160;24.148;2023-08-20T03:46:08;11.13;;;5.68;;
48596;SDS011;34382;43.160;24.148;2023-08-20T03:47:40;9.68;;;5.07;;
48596;SDS011;34382;43.160;24.148;2023-08-20T03:49:15;11.23;;;5.40;;
48596;SDS011;34382;43.160;24.148;2023-08-20T03:50:48;10.32;;;5.93;;
48596;SDS011;34382;43.160;24.148;2023-08-20T03:52:20;8.13;;;4.80;;
48596;SDS011;34382;43.160;24.148;2023-08-20T03:53:52;8.75;;;4.65;;
48596;SDS011;34382;43.160;24.148;2023-08-20T03:55:24;9.55;;;5.30;;
48596;SDS011;34382;43.160;24.148;2023-08-20T03:56:57;9.85;;;5.32;;
48596;SDS011;34382;43.160;24.148;2023-08-20T03:58:29;9.10;;;5.15;;
48596;SDS011;34382;43.160;24.148;2023-08-20T04:00:01;9.27;;;5.43;;
48596;SDS011;34382;43.160;24.148;2023-08-20T04:01:35;10.93;;;4.75;;
48596;SDS011;34382;43.160;24.148;2023-08-20T04:04:41;11.38;;;5.22;;
48596;SDS011;34382;43.160;24.148;2023-08-20T04:06:13;9.20;;;5.10;;
48596;SDS011;34382;43.160;24.148;2023-08-20T04:07:46;10.05;;;5.63;;
48596;SDS011;34382;43.160;24.148;2023-08-20T04:09:18;10.73;;;5.43;;
48596;SDS011;34382;43.160;24.148;2023-08-20T04:10:51;9.75;;;5.45;;
48596;SDS011;34382;43.160;24.148;2023-08-20T04:12:23;8.32;;;4.93;;
48596;SDS011;34382;43.160;24.148;2023-08-20T04:13:56;11.00;;;5.50;;
48596;SDS011;34382;43.160;24.148;2023-08-20T04:15:28;10.30;;;5.55;;
48596;SDS011;34382;43.160;24.148;2023-08-20T04:17:00;10.20;;;5.63;;
48596;SDS011;34382;43.160;24.148;2023-08-20T04:18:33;9.75;;;5.20;;
48596;SDS011;34382;43.160;24.148;2023-08-20T04:20:05;9.38;;;5.75;;
48596;SDS011;34382;43.160;24.148;2023-08-20T04:21:43;10.07;;;5.85;;
48596;SDS011;34382;43.160;24.148;2023-08-20T04:23:15;9.65;;;5.53;;
48596;SDS011;34382;43.160;24.148;2023-08-20T04:24:48;8.80;;;5.45;;
48596;SDS011;34382;43.160;24.148;2023-08-20T04:26:20;9.05;;;5.45;;
48596;SDS011;34382;43.160;24.148;2023-08-20T04:27:52;9.23;;;5.40;;
48596;SDS011;34382;43.160;24.148;2023-08-20T04:29:24;10.07;;;5.60;;
48596;SDS011;34382;43.160;24.148;2023-08-20T04:30:57;10.43;;;5.43;;
48596;SDS011;34382;43.160;24.148;2023-08-20T04:32:32;10.40;;;5.70;;
48596;SDS011;34382;43.160;24.148;2023-08-20T04:34:05;10.90;;;5.25;;
48596;SDS011;34382;43.160;24.148;2023-08-20T04:35:37;9.85;;;5.70;;
48596;SDS011;34382;43.160;24.148;2023-08-20T04:37:09;10.20;;;5.88;;
48596;SDS011;34382;43.160;24.148;2023-08-20T04:38:41;10.73;;;5.82;;
48596;SDS011;34382;43.160;24.148;2023-08-20T04:40:13;9.07;;;5.45;;
48596;SDS011;34382;43.160;24.148;2023-08-20T04:41:48;11.45;;;5.80;;
48596;SDS011;34382;43.160;24.148;2023-08-20T04:43:21;10.10;;;5.43;;
48596;SDS011;34382;43.160;24.148;2023-08-20T04:44:53;10.82;;;5.93;;
48596;SDS011;34382;43.160;24.148;2023-08-20T04:46:25;10.07;;;5.28;;
48596;SDS011;34382;43.160;24.148;2023-08-20T04:47:57;9.48;;;5.45;;
48596;SDS011;34382;43.160;24.148;2023-08-20T04:49:30;10.38;;;5.80;;
48596;SDS011;34382;43.160;24.148;2023-08-20T04:51:02;9.20;;;5.40;;
48596;SDS011;34382;43.160;24.148;2023-08-20T04:52:35;9.55;;;5.70;;
48596;SDS011;34382;43.160;24.148;2023-08-20T04:54:07;9.73;;;5.40;;
48596;SDS011;34382;43.160;24.148;2023-08-20T04:55:39;9.13;;;5.53;;
48596;SDS011;34382;43.160;24.148;2023-08-20T04:57:12;9.40;;;5.85;;
48596;SDS011;34382;43.160;24.148;2023-08-20T04:58:44;8.98;;;5.80;;
48596;SDS011;34382;43.160;24.148;2023-08-20T05:00:16;9.00;;;5.90;;
48596;SDS011;34382;43.160;24.148;2023-08-20T05:01:48;10.07;;;5.75;;
48596;SDS011;34382;43.160;24.148;2023-08-20T05:03:21;9.95;;;5.47;;
48596;SDS011;34382;43.160;24.148;2023-08-20T05:04:53;9.52;;;6.10;;
48596;SDS011;34382;43.160;24.148;2023-08-20T05:06:25;10.00;;;5.78;;
48596;SDS011;34382;43.160;24.148;2023-08-20T05:07:57;8.48;;;5.43;;
48596;SDS011;34382;43.160;24.148;2023-08-20T05:09:30;9.95;;;5.25;;
48596;SDS011;34382;43.160;24.148;2023-08-20T05:11:02;8.77;;;5.47;;
48596;SDS011;34382;43.160;24.148;2023-08-20T05:12:35;9.93;;;5.85;;
48596;SDS011;34382;43.160;24.148;2023-08-20T05:14:08;9.60;;;5.47;;
48596;SDS011;34382;43.160;24.148;2023-08-20T05:15:40;10.40;;;6.05;;
48596;SDS011;34382;43.160;24.148;2023-08-20T06:48:38;10.23;;;5.47;;
48596;SDS011;34382;43.160;24.148;2023-08-20T06:50:10;9.32;;;4.88;;
48596;SDS011;34382;43.160;24.148;2023-08-20T06:51:43;8.48;;;4.93;;
48596;SDS011;34382;43.160;24.148;2023-08-20T06:58:19;7.97;;;4.70;;
48596;SDS011;34382;43.160;24.148;2023-08-20T06:59:51;8.70;;;5.30;;
48596;SDS011;34382;43.160;24.148;2023-08-20T07:05:25;9.07;;;5.40;;
48596;SDS011;34382;43.160;24.148;2023-08-20T07:06:57;8.93;;;5.55;;
48596;SDS011;34382;43.160;24.148;2023-08-20T07:11:49;12.48;;;5.55;;
48596;SDS011;34382;43.160;24.148;2023-08-20T07:13:22;11.07;;;5.35;;
48596;SDS011;34382;43.160;24.148;2023-08-20T07:14:54;8.70;;;5.22;;
48596;SDS011;34382;43.160;24.148;2023-08-20T07:16:26;9.38;;;5.35;;
48596;SDS011;34382;43.160;24.148;2023-08-20T07:33:26;8.98;;;5.00;;
48596;SDS011;34382;43.160;24.148;2023-08-20T07:38:16;10.57;;;5.63;;
48596;SDS011;34382;43.160;24.148;2023-08-20T07:39:48;11.65;;;5.45;;
48596;SDS011;34382;43.160;24.148;2023-08-20T07:41:21;8.30;;;5.03;;
48596;SDS011;34382;43.160;24.148;2023-08-20T07:55:53;9.45;;;5.05;;
48596;SDS011;34382;43.160;24.148;2023-08-20T07:59:05;9.05;;;5.43;;
48596;SDS011;34382;43.160;24.148;2023-08-20T08:08:34;8.98;;;5.20;;
48596;SDS011;34382;43.160;24.148;2023-08-20T08:10:06;8.68;;;5.20;;
48596;SDS011;34382;43.160;24.148;2023-08-20T08:16:39;17.60;;;7.28;;
48596;SDS011;34382;43.160;24.148;2023-08-20T08:18:12;9.75;;;4.95;;
48596;SDS011;34382;43.160;24.148;2023-08-20T08:19:44;9.63;;;4.85;;
48596;SDS011;34382;43.160;24.148;2023-08-20T09:07:34;9.98;;;4.68;;
48596;SDS011;34382;43.160;24.148;2023-08-20T09:09:07;9.38;;;4.40;;
48596;SDS011;34382;43.160;24.148;2023-08-20T09:15:46;8.43;;;4.75;;
48596;SDS011;34382;43.160;24.148;2023-08-20T09:17:24;9.10;;;4.80;;
48596;SDS011;34382;43.160;24.148;2023-08-20T09:18:58;8.38;;;4.60;;
48596;SDS011;34382;43.160;24.148;2023-08-20T09:20:37;8.73;;;4.63;;
48596;SDS011;34382;43.160;24.148;2023-08-20T09:22:13;9.88;;;4.80;;
48596;SDS011;34382;43.160;24.148;2023-08-20T09:23:46;7.80;;;4.32;;
48596;SDS011;34382;43.160;24.148;2023-08-20T09:25:18;8.73;;;4.75;;
48596;SDS011;34382;43.160;24.148;2023-08-20T09:26:55;8.13;;;4.55;;
48596;SDS011;34382;43.160;24.148;2023-08-20T09:28:40;8.95;;;4.65;;
48596;SDS011;34382;43.160;24.148;2023-08-20T09:30:17;8.23;;;4.80;;
48596;SDS011;34382;43.160;24.148;2023-08-20T09:31:51;9.27;;;4.53;;
48596;SDS011;34382;43.160;24.148;2023-08-20T09:33:32;9.05;;;4.70;;
48596;SDS011;34382;43.160;24.148;2023-08-20T09:35:04;7.57;;;4.15;;
48596;SDS011;34382;43.160;24.148;2023-08-20T09:56:58;8.15;;;4.10;;
48596;SDS011;34382;43.160;24.148;2023-08-20T10:02:49;10.18;;;4.80;;
48596;SDS011;34382;43.160;24.148;2023-08-20T10:04:22;8.85;;;4.10;;
48596;SDS011;34382;43.160;24.148;2023-08-20T10:05:55;8.38;;;4.25;;
48596;SDS011;34382;43.160;24.148;2023-08-20T10:07:29;10.23;;;5.05;;
48596;SDS011;34382;43.160;24.148;2023-08-20T10:09:05;7.18;;;4.00;;
48596;SDS011;34382;43.160;24.148;2023-08-20T10:10:39;7.75;;;4.00;;
48596;SDS011;34382;43.160;24.148;2023-08-20T10:13:41;6.87;;;3.70;;
48596;SDS011;34382;43.160;24.148;2023-08-20T10:15:14;6.80;;;3.50;;
48596;SDS011;34382;43.160;24.148;2023-08-20T10:16:47;7.63;;;3.67;;
48596;SDS011;34382;43.160;24.148;2023-08-20T10:18:20;8.50;;;3.78;;
48596;SDS011;34382;43.160;24.148;2023-08-20T10:34:02;7.97;;;3.45;;
48596;SDS011;34382;43.160;24.148;2023-08-20T10:37:14;7.68;;;3.65;;
48596;SDS011;34382;43.160;24.148;2023-08-20T10:38:47;8.15;;;3.60;;
48596;SDS011;34382;43.160;24.148;2023-08-20T10:43:48;7.30;;;3.42;;
48596;SDS011;34382;43.160;24.148;2023-08-20T10:47:08;7.63;;;3.80;;
48596;SDS011;34382;43.160;24.148;2023-08-20T10:48:41;7.00;;;3.30;;
48596;SDS011;34382;43.160;24.148;2023-08-20T10:50:18;7.15;;;3.47;;
48596;SDS011;34382;43.160;24.148;2023-08-20T10:51:51;6.80;;;3.50;;
48596;SDS011;34382;43.160;24.148;2023-08-20T10:53:24;8.02;;;3.67;;
48596;SDS011;34382;43.160;24.148;2023-08-20T10:54:57;9.23;;;5.13;;
48596;SDS011;34382;43.160;24.148;2023-08-20T10:56:46;8.48;;;3.92;;
48596;SDS011;34382;43.160;24.148;2023-08-20T10:58:23;7.60;;;3.88;;
48596;SDS011;34382;43.160;24.148;2023-08-20T10:59:56;6.85;;;3.20;;
48596;SDS011;34382;43.160;24.148;2023-08-20T11:01:32;10.13;;;4.38;;
48596;SDS011;34382;43.160;24.148;2023-08-20T11:03:05;8.38;;;3.67;;
48596;SDS011;34382;43.160;24.148;2023-08-20T11:04:38;8.02;;;4.05;;
48596;SDS011;34382;43.160;24.148;2023-08-20T11:06:11;9.68;;;5.15;;
48596;SDS011;34382;43.160;24.148;2023-08-20T11:07:47;8.95;;;3.95;;
48596;SDS011;34382;43.160;24.148;2023-08-20T11:09:23;7.20;;;3.53;;
48596;SDS011;34382;43.160;24.148;2023-08-20T11:10:56;7.85;;;4.05;;
48596;SDS011;34382;43.160;24.148;2023-08-20T11:12:29;7.97;;;3.72;;
48596;SDS011;34382;43.160;24.148;2023-08-20T11:14:06;8.07;;;4.40;;
48596;SDS011;34382;43.160;24.148;2023-08-20T11:15:39;7.50;;;3.78;;
48596;SDS011;34382;43.160;24.148;2023-08-20T11:17:12;8.05;;;3.80;;
48596;SDS011;34382;43.160;24.148;2023-08-20T11:18:45;6.40;;;3.35;;
48596;SDS011;34382;43.160;24.148;2023-08-20T11:20:19;8.88;;;3.50;;
48596;SDS011;34382;43.160;24.148;2023-08-20T11:21:52;7.35;;;3.80;;
48596;SDS011;34382;43.160;24.148;2023-08-20T11:23:24;7.07;;;3.65;;
48596;SDS011;34382;43.160;24.148;2023-08-20T11:24:56;8.00;;;3.72;;
48596;SDS011;34382;43.160;24.148;2023-08-20T11:26:30;8.40;;;4.03;;
48596;SDS011;34382;43.160;24.148;2023-08-20T11:29:36;8.30;;;3.58;;
48596;SDS011;34382;43.160;24.148;2023-08-20T11:31:08;10.15;;;3.72;;
48596;SDS011;34382;43.160;24.148;2023-08-20T11:34:14;9.10;;;3.67;;
48596;SDS011;34382;43.160;24.148;2023-08-20T11:35:48;5.90;;;3.05;;
48596;SDS011;34382;43.160;24.148;2023-08-20T11:37:20;6.93;;;3.35;;
48596;SDS011;34382;43.160;24.148;2023-08-20T11:40:28;9.27;;;3.67;;
48596;SDS011;34382;43.160;24.148;2023-08-20T11:42:01;7.63;;;3.80;;
48596;SDS011;34382;43.160;24.148;2023-08-20T11:43:35;7.65;;;3.90;;
48596;SDS011;34382;43.160;24.148;2023-08-20T11:45:09;7.93;;;3.40;;
48596;SDS011;34382;43.160;24.148;2023-08-20T11:46:44;8.88;;;3.35;;
48596;SDS011;34382;43.160;24.148;2023-08-20T11:48:17;8.10;;;3.92;;
48596;SDS011;34382;43.160;24.148;2023-08-20T11:50:02;7.63;;;3.63;;
48596;SDS011;34382;43.160;24.148;2023-08-20T11:51:37;7.30;;;3.45;;
48596;SDS011;34382;43.160;24.148;2023-08-20T11:53:10;7.35;;;3.75;;
48596;SDS011;34382;43.160;24.148;2023-08-20T11:54:43;6.82;;;3.35;;
48596;SDS011;34382;43.160;24.148;2023-08-20T11:56:16;7.22;;;3.38;;
48596;SDS011;34382;43.160;24.148;2023-08-20T11:57:49;7.88;;;4.15;;
48596;SDS011;34382;43.160;24.148;2023-08-20T11:59:25;8.32;;;4.03;;
48596;SDS011;34382;43.160;24.148;2023-08-20T12:00:57;7.53;;;3.47;;
48596;SDS011;34382;43.160;24.148;2023-08-20T12:02:31;8.10;;;3.40;;
48596;SDS011;34382;43.160;24.148;2023-08-20T12:04:11;8.40;;;3.47;;
48596;SDS011;34382;43.160;24.148;2023-08-20T12:05:44;7.63;;;3.70;;
48596;SDS011;34382;43.160;24.148;2023-08-20T12:07:17;7.00;;;3.65;;
48596;SDS011;34382;43.160;24.148;2023-08-20T12:08:50;6.10;;;3.25;;
48596;SDS011;34382;43.160;24.148;2023-08-20T12:10:22;7.13;;;3.72;;
48596;SDS011;34382;43.160;24.148;2023-08-20T12:11:55;7.70;;;3.90;;
48596;SDS011;34382;43.160;24.148;2023-08-20T12:13:29;7.97;;;3.53;;
48596;SDS011;34382;43.160;24.148;2023-08-20T12:15:01;7.65;;;3.58;;
48596;SDS011;34382;43.160;24.148;2023-08-20T12:18:06;10.05;;;4.40;;
48596;SDS011;34382;43.160;24.148;2023-08-20T12:19:40;7.97;;;3.85;;
48596;SDS011;34382;43.160;24.148;2023-08-20T12:21:13;8.25;;;3.72;;
48596;SDS011;34382;43.160;24.148;2023-08-20T12:22:50;6.70;;;3.20;;
48596;SDS011;34382;43.160;24.148;2023-08-20T12:24:23;7.20;;;3.42;;
48596;SDS011;34382;43.160;24.148;2023-08-20T12:25:55;7.32;;;3.35;;
48596;SDS011;34382;43.160;24.148;2023-08-20T12:27:28;7.53;;;3.33;;
48596;SDS011;34382;43.160;24.148;2023-08-20T12:30:33;8.02;;;3.22;;
48596;SDS011;34382;43.160;24.148;2023-08-20T12:32:09;6.88;;;3.25;;
48596;SDS011;34382;43.160;24.148;2023-08-20T12:33:42;6.65;;;3.22;;
48596;SDS011;34382;43.160;24.148;2023-08-20T12:35:15;7.15;;;3.30;;
48596;SDS011;34382;43.160;24.148;2023-08-20T12:36:48;8.45;;;3.65;;
48596;SDS011;34382;43.160;24.148;2023-08-20T12:38:21;7.97;;;3.47;;
48596;SDS011;34382;43.160;24.148;2023-08-20T12:39:54;7.90;;;3.90;;
48596;SDS011;34382;43.160;24.148;2023-08-20T12:41:26;7.43;;;3.33;;
48596;SDS011;34382;43.160;24.148;2023-08-20T12:42:59;7.25;;;3.75;;
48596;SDS011;34382;43.160;24.148;2023-08-20T12:44:31;7.20;;;3.17;;
48596;SDS011;34382;43.160;24.148;2023-08-20T12:46:04;7.47;;;3.75;;
48596;SDS011;34382;43.160;24.148;2023-08-20T12:47:36;7.38;;;3.75;;
48596;SDS011;34382;43.160;24.148;2023-08-20T12:49:09;6.95;;;3.58;;
48596;SDS011;34382;43.160;24.148;2023-08-20T12:50:42;7.55;;;3.50;;
48596;SDS011;34382;43.160;24.148;2023-08-20T12:52:14;7.10;;;3.42;;
48596;SDS011;34382;43.160;24.148;2023-08-20T12:53:48;14.50;;;7.75;;
48596;SDS011;34382;43.160;24.148;2023-08-20T12:55:21;9.20;;;3.85;;
48596;SDS011;34382;43.160;24.148;2023-08-20T12:56:54;10.57;;;5.28;;
48596;SDS011;34382;43.160;24.148;2023-08-20T12:58:26;8.77;;;4.53;;
48596;SDS011;34382;43.160;24.148;2023-08-20T12:59:59;11.88;;;7.45;;
48596;SDS011;34382;43.160;24.148;2023-08-20T13:01:32;8.82;;;4.75;;
48596;SDS011;34382;43.160;24.148;2023-08-20T13:03:04;9.02;;;4.63;;
48596;SDS011;34382;43.160;24.148;2023-08-20T13:04:38;9.00;;;4.32;;
48596;SDS011;34382;43.160;24.148;2023-08-20T13:06:13;11.07;;;6.43;;
48596;SDS011;34382;43.160;24.148;2023-08-20T13:07:49;8.20;;;3.63;;
48596;SDS011;34382;43.160;24.148;2023-08-20T13:09:22;7.70;;;3.60;;
48596;SDS011;34382;43.160;24.148;2023-08-20T13:10:55;12.57;;;6.95;;
48596;SDS011;34382;43.160;24.148;2023-08-20T13:12:28;7.60;;;4.03;;
48596;SDS011;34382;43.160;24.148;2023-08-20T13:14:04;8.02;;;3.80;;
48596;SDS011;34382;43.160;24.148;2023-08-20T13:15:37;7.68;;;3.40;;
48596;SDS011;34382;43.160;24.148;2023-08-20T13:17:11;7.20;;;3.70;;
48596;SDS011;34382;43.160;24.148;2023-08-20T13:18:43;7.63;;;3.97;;
48596;SDS011;34382;43.160;24.148;2023-08-20T13:20:16;9.13;;;3.50;;
48596;SDS011;34382;43.160;24.148;2023-08-20T13:21:56;7.78;;;3.38;;
48596;SDS011;34382;43.160;24.148;2023-08-20T13:23:29;8.45;;;3.17;;
48596;SDS011;34382;43.160;24.148;2023-08-20T13:25:02;7.10;;;3.33;;
48596;SDS011;34382;43.160;24.148;2023-08-20T13:26:49;6.57;;;3.40;;
48596;SDS011;34382;43.160;24.148;2023-08-20T13:28:31;7.75;;;3.58;;
48596;SDS011;34382;43.160;24.148;2023-08-20T13:30:05;8.05;;;3.42;;
48596;SDS011;34382;43.160;24.148;2023-08-20T13:31:41;8.18;;;3.35;;
48596;SDS011;34382;43.160;24.148;2023-08-20T13:33:13;6.22;;;3.40;;
48596;SDS011;34382;43.160;24.148;2023-08-20T13:34:46;6.65;;;3.20;;
48596;SDS011;34382;43.160;24.148;2023-08-20T13:36:18;7.32;;;3.35;;
48596;SDS011;34382;43.160;24.148;2023-08-20T13:37:50;7.15;;;3.20;;
48596;SDS011;34382;43.160;24.148;2023-08-20T13:39:24;7.70;;;3.00;;
48596;SDS011;34382;43.160;24.148;2023-08-20T13:40:58;6.15;;;3.35;;
48596;SDS011;34382;43.160;24.148;2023-08-20T13:42:33;7.30;;;3.60;;
48596;SDS011;34382;43.160;24.148;2023-08-20T13:44:06;6.72;;;3.17;;
48596;SDS011;34382;43.160;24.148;2023-08-20T13:45:40;7.15;;;3.53;;
48596;SDS011;34382;43.160;24.148;2023-08-20T13:47:12;6.65;;;3.30;;
48596;SDS011;34382;43.160;24.148;2023-08-20T13:48:45;7.47;;;3.42;;
48596;SDS011;34382;43.160;24.148;2023-08-20T13:50:17;8.63;;;3.80;;
48596;SDS011;34382;43.160;24.148;2023-08-20T13:51:51;8.15;;;3.22;;
48596;SDS011;34382;43.160;24.148;2023-08-20T13:53:23;7.65;;;3.05;;
48596;SDS011;34382;43.160;24.148;2023-08-20T13:54:55;7.72;;;3.53;;